Time;durP1;ratioP1;P1;durP2;ratioP2;P2;SDS_P1;SDS_P2;PMS_P1;PMS_P2;Temp;Humidity;BMP_temperature;BMP_pressure;BME280_temperature;BME280_humidity;BME280_pressure;Samples;Min_cycle;Max_cycle;Signal;HPM_P1;HPM_P2
2021/05/17 00:02:00;;;;;;;;;10.00;10.00;;;;;8.43;96.87;98690.72;3578258;40;9843;-47
2021/05/17 00:04:35;;;;;;;;;14.67;11.33;;;;;8.65;96.52;98689.22;3578108;40;9985;-49
2021/05/17 00:07:06;;;;;;;;;10.67;10.67;;;;;8.78;96.20;98690.09;3578592;40;10071;-48
2021/05/17 00:09:34;;;;;;;;;12.00;11.00;;;;;8.59;97.14;98681.66;3578043;40;10166;-47
2021/05/17 00:12:03;;;;;;;;;11.00;10.33;;;;;8.59;97.06;98678.97;3578141;40;9760;-49
2021/05/17 00:14:32;;;;;;;;;10.00;7.00;;;;;8.64;97.28;98676.84;3578254;40;9758;-52
2021/05/17 00:17:00;;;;;;;;;7.00;7.00;;;;;8.81;95.89;98681.84;3578753;40;9750;-50
2021/05/17 00:19:29;;;;;;;;;10.00;8.67;;;;;8.31;96.69;98678.16;3578582;40;9806;-46
2021/05/17 00:21:56;;;;;;;;;10.33;8.67;;;;;8.71;96.66;98683.44;3578171;40;10169;-48
2021/05/17 00:24:24;;;;;;;;;11.33;11.33;;;;;8.79;95.04;98673.06;3578547;40;9864;-49
2021/05/17 00:26:52;;;;;;;;;10.67;8.67;;;;;8.40;95.77;98685.59;3578091;40;10394;-48
2021/05/17 00:29:20;;;;;;;;;10.67;9.67;;;;;8.59;92.85;98681.66;3578191;40;9924;-50
2021/05/17 00:31:47;;;;;;;;;10.33;10.33;;;;;8.18;94.26;98677.28;3578235;40;9908;-50
2021/05/17 00:34:15;;;;;;;;;10.67;9.67;;;;;8.43;94.97;98680.03;3578844;40;9949;-48
2021/05/17 00:36:42;;;;;;;;;13.33;11.00;;;;;8.61;93.96;98679.69;3578409;40;9969;-47
2021/05/17 00:39:12;;;;;;;;;10.67;10.00;;;;;8.43;96.23;98672.00;3585421;40;9913;-49
2021/05/17 00:41:42;;;;;;;;;15.67;11.67;;;;;8.50;96.20;98675.94;3578055;40;10428;-47
2021/05/17 00:44:11;;;;;;;;;11.33;10.67;;;;;8.56;96.49;98667.50;3578798;40;10189;-49
2021/05/17 00:46:40;;;;;;;;;10.67;10.00;;;;;8.59;97.17;98666.44;3577446;40;10329;-46
2021/05/17 00:49:08;;;;;;;;;15.67;11.00;;;;;8.52;96.82;98666.00;3585629;40;10118;-47
2021/05/17 00:51:36;;;;;;;;;15.00;11.67;;;;;8.76;97.05;98655.38;3577916;40;9885;-51
2021/05/17 00:54:05;;;;;;;;;13.33;10.67;;;;;8.93;95.58;98659.56;3577815;40;10304;-48
2021/05/17 00:56:33;;;;;;;;;11.67;10.33;;;;;9.10;94.84;98654.81;3585416;40;9775;-47
2021/05/17 00:59:01;;;;;;;;;19.00;11.67;;;;;9.07;93.53;98655.03;3577791;40;10209;-50
2021/05/17 01:01:29;;;;;;;;;12.33;12.33;;;;;9.16;92.83;98644.53;3577891;40;10355;-47
2021/05/17 01:03:56;;;;;;;;;16.67;14.00;;;;;8.72;95.15;98645.88;3577758;40;10273;-49
2021/05/17 01:06:28;;;;;;;;;13.67;11.67;;;;;8.59;96.03;98636.16;3578044;40;10843;-48
2021/05/17 01:09:04;;;;;;;;;14.33;14.00;;;;;8.60;96.82;98637.88;3578361;40;10471;-49
2021/05/17 01:11:33;;;;;;;;;14.67;11.00;;;;;8.40;97.15;98645.47;3577543;40;10021;-50
2021/05/17 01:14:05;;;;;;;;;11.67;10.67;;;;;8.95;94.72;98641.56;3577762;40;10805;-50
2021/05/17 01:16:34;;;;;;;;;14.67;12.00;;;;;9.16;94.50;98638.28;3577730;40;10488;-47
2021/05/17 01:19:05;;;;;;;;;16.00;14.67;;;;;8.81;95.22;98638.16;3577701;40;10286;-47
2021/05/17 01:21:38;;;;;;;;;14.67;13.33;;;;;8.72;96.32;98627.16;3578169;40;10457;-48
2021/05/17 01:24:07;;;;;;;;;15.67;12.67;;;;;8.59;97.23;98628.13;3577670;40;10275;-47
2021/05/17 01:26:37;;;;;;;;;13.33;13.33;;;;;8.83;97.58;98622.84;3577283;40;9885;-49
2021/05/17 01:29:07;;;;;;;;;13.67;13.33;;;;;8.88;97.83;98624.25;3585104;40;9954;-49
2021/05/17 01:31:36;;;;;;;;;16.00;14.00;;;;;9.09;96.76;98624.50;3577981;40;10195;-49
2021/05/17 01:34:04;;;;;;;;;14.67;13.67;;;;;9.21;95.53;98620.91;3578203;40;10109;-49
2021/05/17 01:36:34;;;;;;;;;15.00;15.00;;;;;9.23;94.87;98620.81;3577656;40;10232;-47
2021/05/17 01:39:03;;;;;;;;;18.67;14.00;;;;;9.25;96.00;98621.56;3585407;40;10439;-47
2021/05/17 01:41:30;;;;;;;;;20.33;16.67;;;;;9.26;96.71;98625.09;3577918;40;10719;-50
2021/05/17 01:43:58;;;;;;;;;19.33;16.33;;;;;9.30;97.35;98618.56;3576530;40;10391;-47
2021/05/17 01:46:31;;;;;;;;;18.33;14.67;;;;;9.48;96.85;98614.53;3578149;40;10287;-48
2021/05/17 01:49:00;;;;;;;;;12.75;12.50;;;;;9.43;97.46;98606.81;3576621;40;11048;-47
2021/05/17 01:51:28;;;;;;;;;13.00;11.33;;;;;9.30;97.85;98608.69;3577857;40;10397;-46
2021/05/17 01:53:59;;;;;;;;;16.00;15.33;;;;;9.44;97.98;98602.31;3577994;40;10514;-51
2021/05/17 01:56:27;;;;;;;;;12.00;12.00;;;;;9.36;97.54;98596.66;3578835;40;11278;-48
2021/05/17 01:58:55;;;;;;;;;15.75;12.50;;;;;9.33;96.97;98599.56;3576740;40;14773;-48
2021/05/17 02:01:23;;;;;;;;;14.50;10.00;;;;;9.28;97.18;98588.34;3577841;40;10888;-50
2021/05/17 02:03:51;;;;;;;;;12.67;12.67;;;;;9.26;97.03;98580.41;3577469;40;14037;-50
2021/05/17 02:06:19;;;;;;;;;11.67;11.33;;;;;9.51;96.52;98589.31;3577640;40;10387;-51
2021/05/17 02:08:49;;;;;;;;;15.67;10.67;;;;;9.60;96.01;98593.97;3577725;40;10237;-51
2021/05/17 02:11:20;;;;;;;;;13.00;11.00;;;;;9.58;96.48;98587.88;3576382;40;10976;-47
2021/05/17 02:13:48;;;;;;;;;15.33;11.67;;;;;9.16;97.33;98574.91;3577306;40;10450;-46
2021/05/17 02:16:17;;;;;;;;;15.00;13.67;;;;;9.66;97.51;98577.44;3577079;40;10272;-48
2021/05/17 02:18:47;;;;;;;;;12.33;11.33;;;;;9.78;96.12;98581.03;3577265;40;10312;-48
2021/05/17 02:21:18;;;;;;;;;19.00;16.00;;;;;9.74;96.87;98585.75;3585085;40;10236;-46
2021/05/17 02:23:45;;;;;;;;;16.00;16.00;;;;;9.76;97.58;98586.47;3576641;40;10049;-49
2021/05/17 02:26:13;;;;;;;;;18.33;15.00;;;;;9.67;96.79;98579.16;3577261;40;10195;-50
2021/05/17 02:28:41;;;;;;;;;12.00;12.00;;;;;9.58;97.74;98586.03;3577169;40;10207;-46
2021/05/17 02:31:10;;;;;;;;;19.00;15.00;;;;;9.52;97.09;98580.31;3577158;40;10265;-49
2021/05/17 02:33:38;;;;;;;;;22.00;18.33;;;;;9.50;97.38;98576.88;3576286;40;10632;-50
2021/05/17 02:36:07;;;;;;;;;20.00;17.67;;;;;9.12;97.96;98572.56;3577530;40;10619;-47
2021/05/17 02:38:35;;;;;;;;;16.00;15.00;;;;;9.08;99.00;98576.41;3577346;40;10369;-50
2021/05/17 02:41:06;;;;;;;;;20.33;19.33;;;;;9.40;98.52;98577.59;3577073;40;9839;-48
2021/05/17 02:43:34;;;;;;;;;68.00;54.50;;;;;9.64;97.56;98579.38;3585490;40;10531;-51
2021/05/17 02:46:02;;;;;;;;;26.00;24.00;;;;;9.66;96.46;98582.78;3584973;40;9825;-46
2021/05/17 02:48:31;;;;;;;;;15.67;15.00;;;;;9.61;96.56;98569.75;3577463;40;10408;-49
2021/05/17 02:51:00;;;;;;;;;13.75;13.75;;;;;9.61;97.00;98571.56;3577410;40;10979;-48
2021/05/17 02:53:50;;;;;;;;;15.25;12.75;;;;;9.76;96.36;98575.75;3585015;40;10697;-47
2021/05/17 02:56:33;;;;;;;;;16.33;16.00;;;;;9.96;94.45;98578.75;3578486;40;14073;-48
2021/05/17 02:59:04;;;;;;;;;17.00;15.67;;;;;9.83;94.52;98584.19;3586079;40;10203;-46
2021/05/17 03:01:42;;;;;;;;;27.67;20.33;;;;;9.50;96.95;98574.19;3578571;40;10288;-47
2021/05/17 03:04:16;;;;;;;;;17.33;17.33;;;;;9.34;98.55;98569.97;3586012;40;10319;-50
2021/05/17 03:07:03;;;;;;;;;20.67;19.33;;;;;9.57;98.06;98570.09;3578933;40;10172;-49
2021/05/17 03:09:34;;;;;;;;;21.00;17.00;;;;;9.92;96.00;98577.28;3578852;40;10452;-49
2021/05/17 03:12:03;;;;;;;;;21.00;16.67;;;;;9.79;96.01;98570.16;3578579;40;10392;-48
2021/05/17 03:14:36;;;;;;;;;20.33;19.33;;;;;9.51;97.53;98568.75;3578424;40;10524;-51
2021/05/17 03:17:04;;;;;;;;;27.67;21.33;;;;;9.55;97.75;98564.84;3578424;40;10353;-49
2021/05/17 03:19:32;;;;;;;;;31.00;29.33;;;;;9.42;98.93;98572.09;3585857;40;10300;-51
2021/05/17 03:22:02;;;;;;;;;21.00;20.33;;;;;9.53;98.55;98560.56;3586348;40;10565;-48
2021/05/17 03:24:37;;;;;;;;;21.00;20.33;;;;;9.49;98.27;98565.31;3578409;40;10259;-47
2021/05/17 03:27:27;;;;;;;;;21.67;20.00;;;;;9.74;97.45;98563.44;3578820;40;11087;-49
2021/05/17 03:29:56;;;;;;;;;27.00;20.33;;;;;9.73;96.87;98562.59;3578344;40;10473;-48
2021/05/17 03:32:24;;;;;;;;;26.33;20.67;;;;;9.79;97.15;98554.06;3586026;40;10407;-51
2021/05/17 03:34:53;;;;;;;;;21.25;20.00;;;;;9.79;97.15;98555.91;3578830;40;10728;-50
2021/05/17 03:37:21;;;;;;;;;27.67;25.00;;;;;9.85;96.64;98553.63;3578700;40;11007;-48
2021/05/17 03:39:50;;;;;;;;;27.67;21.33;;;;;10.17;96.82;98555.63;3586251;40;10448;-48
2021/05/17 03:42:18;;;;;;;;;25.67;22.33;;;;;10.08;95.13;98550.97;3578746;40;10399;-49
2021/05/17 03:44:45;;;;;;;;;24.50;21.75;;;;;10.15;96.68;98554.06;3578514;40;10871;-48
2021/05/17 03:47:12;;;;;;;;;28.00;21.50;;;;;10.18;95.57;98559.16;3578264;40;10734;-46
2021/05/17 03:49:40;;;;;;;;;24.33;22.00;;;;;10.07;96.02;98560.00;3585621;40;10545;-48
2021/05/17 03:52:07;;;;;;;;;28.75;18.75;;;;;10.15;95.85;98552.22;3578556;40;10775;-50
2021/05/17 03:54:35;;;;;;;;;23.00;21.25;;;;;10.47;95.41;98562.28;3585733;40;10722;-46
2021/05/17 03:57:04;;;;;;;;;23.75;23.50;;;;;10.88;92.91;98563.50;3578541;40;14125;-48
2021/05/17 03:59:34;;;;;;;;;29.75;22.00;;;;;10.80;93.02;98563.25;3578047;40;14087;-49
2021/05/17 04:02:01;;;;;;;;;21.25;20.00;;;;;10.88;92.15;98560.81;3578044;40;14083;-51
2021/05/17 04:04:35;;;;;;;;;23.75;22.00;;;;;10.36;95.07;98564.97;3577505;40;14286;-49
2021/05/17 04:07:24;;;;;;;;;24.75;20.25;;;;;10.33;96.20;98550.81;3578139;40;10713;-49
2021/05/17 04:15:40;;;;;;;;;23.75;23.25;;;;;10.89;94.99;98543.69;3578116;40;10704;-47
2021/05/17 04:18:08;;;;;;;;;26.00;22.75;;;;;11.09;95.23;98553.69;3577928;40;14598;-47
2021/05/17 04:20:35;;;;;;;;;25.75;24.00;;;;;10.86;95.29;98547.50;3577967;40;10663;-47
2021/05/17 04:23:03;;;;;;;;;23.50;20.50;;;;;10.81;96.63;98543.47;3577883;40;14213;-50
2021/05/17 04:25:31;;;;;;;;;27.75;23.75;;;;;10.93;96.39;98547.84;3578016;40;14276;-49
2021/05/17 04:27:59;;;;;;;;;27.75;22.50;;;;;10.83;96.19;98546.91;3578328;40;10763;-48
2021/05/17 04:30:26;;;;;;;;;27.25;24.00;;;;;10.82;98.35;98539.78;3577786;40;14084;-47
2021/05/17 04:32:54;;;;;;;;;29.25;26.50;;;;;10.83;98.37;98547.75;3577736;40;14306;-50
2021/05/17 04:35:21;;;;;;;;;27.25;24.00;;;;;10.90;97.68;98538.22;3577754;40;10734;-49
2021/05/17 04:37:49;;;;;;;;;27.50;27.25;;;;;11.01;97.34;98539.19;3577744;40;10656;-49
2021/05/17 04:40:16;;;;;;;;;28.25;25.75;;;;;10.98;98.11;98534.91;3578264;40;14078;-48
2021/05/17 04:42:44;;;;;;;;;35.50;26.75;;;;;11.09;98.40;98537.56;3578138;40;14110;-50
2021/05/17 04:45:13;;;;;;;;;26.25;23.00;;;;;11.13;98.25;98539.00;3577769;40;14088;-48
2021/05/17 04:47:41;;;;;;;;;30.75;26.25;;;;;11.22;98.05;98542.78;3578107;40;14096;-47
2021/05/17 04:50:09;;;;;;;;;38.33;34.67;;;;;11.38;97.33;98545.03;3578205;40;14119;-47
2021/05/17 04:52:37;;;;;;;;;29.50;25.25;;;;;11.52;96.76;98550.13;3577789;40;10898;-49
2021/05/17 04:55:06;;;;;;;;;34.67;34.00;;;;;11.46;96.14;98545.25;3577474;40;14177;-48
2021/05/17 04:57:33;;;;;;;;;31.00;29.33;;;;;11.46;96.85;98550.63;3577776;40;10593;-52
2021/05/17 05:00:08;;;;;;;;;21.50;19.00;;;;;11.44;96.98;98547.22;3578157;40;10804;-47
2021/05/17 05:02:36;;;;;;;;;28.25;24.50;;;;;11.47;98.21;98544.25;3577615;40;14286;-49
2021/05/17 05:05:04;;;;;;;;;30.25;25.50;;;;;11.45;97.91;98535.47;3577694;40;14103;-48
2021/05/17 05:07:31;;;;;;;;;29.50;24.50;;;;;11.47;98.12;98536.19;3577450;40;14103;-47
2021/05/17 05:09:59;;;;;;;;;25.25;24.50;;;;;11.44;99.07;98531.09;3576857;40;14199;-48
2021/05/17 05:12:26;;;;;;;;;27.50;25.25;;;;;11.53;98.70;98533.03;3577797;40;14302;-52
2021/05/17 05:14:53;;;;;;;;;32.50;27.25;;;;;11.40;98.80;98526.94;3578175;40;14191;-47
2021/05/17 05:17:21;;;;;;;;;31.75;23.25;;;;;11.54;99.84;98526.66;3577624;40;14602;-48
2021/05/17 05:19:48;;;;;;;;;28.50;25.25;;;;;11.59;98.92;98527.13;3577909;40;14092;-46
2021/05/17 05:22:15;;;;;;;;;29.50;24.25;;;;;11.58;99.00;98524.53;3585447;40;14280;-48
2021/05/17 05:24:43;;;;;;;;;29.50;23.50;;;;;11.62;98.86;98524.16;3577491;40;14598;-47
2021/05/17 05:27:15;;;;;;;;;25.00;22.50;;;;;11.78;97.90;98528.25;3577598;40;10582;-47
2021/05/17 05:30:08;;;;;;;;;28.25;23.75;;;;;11.83;98.36;98531.41;3577285;40;14090;-50
2021/05/17 05:32:47;;;;;;;;;27.50;22.25;;;;;11.86;98.70;98537.38;3577248;40;14107;-49
2021/05/17 05:35:14;;;;;;;;;31.50;25.00;;;;;11.88;98.81;98534.59;3578030;40;14085;-51
2021/05/17 05:37:41;;;;;;;;;29.00;26.25;;;;;11.83;99.29;98537.63;3577279;40;14074;-51
2021/05/17 05:40:10;;;;;;;;;30.00;25.00;;;;;11.76;99.02;98547.19;3585355;40;14306;-48
2021/05/17 05:42:37;;;;;;;;;37.00;35.50;;;;;11.83;99.94;98544.84;3577806;40;14702;-48
2021/05/17 05:45:10;;;;;;;;;37.75;30.75;;;;;11.53;99.48;98543.78;3577819;40;14116;-48
2021/05/17 05:47:37;;;;;;;;;37.00;34.50;;;;;11.58;100.00;98538.84;3585109;40;14108;-51
2021/05/17 05:50:06;;;;;;;;;39.00;34.67;;;;;11.66;100.00;98538.19;3577727;40;10412;-51
2021/05/17 05:52:33;;;;;;;;;30.25;27.50;;;;;11.70;100.00;98545.03;3577752;40;10818;-50
2021/05/17 05:55:04;;;;;;;;;37.00;32.00;;;;;11.68;100.00;98538.06;3576616;40;10378;-51
2021/05/17 05:57:39;;;;;;;;;33.50;29.50;;;;;11.61;100.00;98541.28;3577425;40;10768;-51
2021/05/17 06:00:08;;;;;;;;;33.25;30.50;;;;;11.68;100.00;98538.91;3577208;40;14317;-52
2021/05/17 06:02:37;;;;;;;;;31.00;28.00;;;;;11.61;100.00;98543.09;3577459;40;14212;-51
2021/05/17 06:05:06;;;;;;;;;37.50;32.75;;;;;11.62;100.00;98545.66;3577614;40;14697;-48
2021/05/17 06:07:34;;;;;;;;;38.50;30.50;;;;;11.83;100.00;98545.69;3577598;40;14099;-49
2021/05/17 06:10:09;;;;;;;;;32.75;30.75;;;;;11.72;100.00;98550.28;3577217;40;14323;-49
2021/05/17 06:12:40;;;;;;;;;35.50;31.25;;;;;11.78;100.00;98552.44;3577212;40;10805;-48
2021/05/17 06:15:11;;;;;;;;;36.00;31.25;;;;;12.01;100.00;98562.13;3577448;40;14312;-49
2021/05/17 06:17:39;;;;;;;;;31.00;27.00;;;;;12.04;100.00;98564.56;3577588;40;14095;-48
2021/05/17 06:20:08;;;;;;;;;33.25;30.75;;;;;12.08;99.99;98568.72;3576323;40;14119;-47
2021/05/17 06:22:37;;;;;;;;;28.00;25.00;;;;;12.03;100.00;98568.25;3576950;40;14099;-47
2021/05/17 06:25:13;;;;;;;;;32.00;29.50;;;;;11.95;100.00;98568.03;3576251;40;14279;-49
2021/05/17 06:27:42;;;;;;;;;35.75;31.00;;;;;11.89;100.00;98579.31;3577526;40;14097;-48
2021/05/17 06:30:13;;;;;;;;;28.50;28.00;;;;;11.91;100.00;98577.34;3578887;40;14821;-47
2021/05/17 06:32:42;;;;;;;;;38.50;34.25;;;;;11.73;100.00;98568.13;3585959;40;14080;-47
2021/05/17 06:35:13;;;;;;;;;36.75;31.50;;;;;11.69;100.00;98561.28;3586458;40;14121;-48
2021/05/17 06:37:40;;;;;;;;;36.75;30.75;;;;;11.85;100.00;98577.84;3578162;40;14096;-48
2021/05/17 06:40:09;;;;;;;;;28.00;26.00;;;;;11.89;100.00;98576.63;3586018;40;14117;-49
2021/05/17 06:42:36;;;;;;;;;34.50;31.50;;;;;11.80;100.00;98575.53;3578926;40;14111;-48
2021/05/17 06:45:05;;;;;;;;;34.50;34.00;;;;;11.95;100.00;98576.09;3578296;40;14286;-46
2021/05/17 06:47:34;;;;;;;;;37.00;30.75;;;;;12.05;100.00;98573.47;3578491;40;14114;-47
2021/05/17 06:50:05;;;;;;;;;38.75;34.25;;;;;12.00;100.00;98578.41;3585886;40;14144;-49
2021/05/17 06:52:33;;;;;;;;;37.00;33.00;;;;;11.86;100.00;98584.94;3577051;40;14163;-51
2021/05/17 06:55:11;;;;;;;;;36.00;35.00;;;;;11.79;100.00;98591.78;3568658;40;14648;-47
2021/05/17 06:57:57;;;;;;;;;42.00;33.50;;;;;11.83;100.00;98579.81;3575432;40;10845;-51
2021/05/17 07:02:57;;;;;;;;;37.75;34.50;;;;;11.48;100.00;98586.31;3568498;40;10690;-53
2021/05/17 07:05:26;;;;;;;;;41.33;34.33;;;;;11.50;100.00;98578.94;3568272;40;14658;-50
2021/05/17 07:13:08;;;;;;;;;41.33;37.67;;;;;11.58;100.00;98563.03;3574629;40;10519;-52
2021/05/17 07:15:36;;;;;;;;;37.00;33.33;;;;;11.75;100.00;98566.16;3568402;40;9995;-50
2021/05/17 07:18:04;;;;;;;;;47.00;38.67;;;;;11.67;100.00;98557.88;3568801;40;9974;-47
2021/05/17 07:25:48;;;;;;;;;46.50;37.00;;;;;11.94;100.00;98547.50;3576636;40;10699;-51
2021/05/17 07:28:15;;;;;;;;;46.33;38.33;;;;;12.01;100.00;98545.16;3576955;40;14113;-48
2021/05/17 07:30:43;;;;;;;;;50.00;40.67;;;;;12.22;100.00;98547.81;3567869;40;10332;-49
2021/05/17 07:33:11;;;;;;;;;55.00;41.33;;;;;12.32;100.00;98543.31;3567811;40;10337;-51
2021/05/17 07:35:38;;;;;;;;;52.00;41.67;;;;;12.26;100.00;98550.09;3576005;40;10591;-53
2021/05/17 07:38:06;;;;;;;;;44.00;39.67;;;;;12.43;100.00;98554.03;3577463;40;10664;-48
2021/05/17 07:40:34;;;;;;;;;55.00;45.33;;;;;12.44;100.00;98549.50;3576218;40;10320;-50
2021/05/17 07:43:03;;;;;;;;;51.00;41.33;;;;;12.57;100.00;98542.03;3572692;40;10658;-51
2021/05/17 07:45:45;;;;;;;;;46.50;38.75;;;;;12.48;100.00;98543.72;3577071;40;11051;-50
2021/05/17 07:48:14;;;;;;;;;42.75;37.75;;;;;12.49;100.00;98544.56;3569106;40;10950;-53
2021/05/17 07:50:41;;;;;;;;;44.00;35.25;;;;;12.41;100.00;98539.84;3575423;40;14056;-52
2021/05/17 07:53:09;;;;;;;;;52.50;41.25;;;;;12.57;100.00;98533.97;3576087;40;14074;-54
2021/05/17 07:55:36;;;;;;;;;42.50;37.00;;;;;12.57;100.00;98536.66;3576360;40;14079;-53
2021/05/17 07:58:04;;;;;;;;;43.50;37.00;;;;;12.61;100.00;98531.84;3576806;40;14073;-53
2021/05/17 08:00:32;;;;;;;;;43.75;37.75;;;;;12.78;100.00;98530.34;3576124;40;14630;-54
2021/05/17 08:03:00;;;;;;;;;41.75;37.00;;;;;12.72;100.00;98523.69;3576899;40;14102;-53
2021/05/17 08:05:31;;;;;;;;;43.50;38.00;;;;;12.69;100.00;98521.22;3574793;40;14571;-55
2021/05/17 08:07:59;;;;;;;;;45.25;37.75;;;;;12.69;100.00;98518.53;3577091;40;14751;-49
2021/05/17 08:10:27;;;;;;;;;43.00;35.00;;;;;12.77;100.00;98518.75;3576856;40;14114;-56
2021/05/17 08:12:54;;;;;;;;;38.50;35.25;;;;;12.72;100.00;98516.44;3576697;40;14305;-52
2021/05/17 08:15:22;;;;;;;;;38.00;35.25;;;;;12.82;100.00;98512.91;3576900;40;14165;-54
2021/05/17 08:17:49;;;;;;;;;37.00;32.50;;;;;12.68;100.00;98516.84;3577031;40;14104;-52
2021/05/17 08:20:17;;;;;;;;;34.75;34.75;;;;;12.77;100.00;98516.03;3576901;40;14080;-53
2021/05/17 08:22:44;;;;;;;;;38.25;34.75;;;;;12.77;100.00;98513.34;3577144;40;14082;-49
2021/05/17 08:25:12;;;;;;;;;41.00;37.25;;;;;12.88;100.00;98512.38;3577213;40;14792;-51
2021/05/17 08:27:39;;;;;;;;;36.25;33.50;;;;;12.91;100.00;98517.50;3576978;40;14112;-54
2021/05/17 08:30:08;;;;;;;;;44.75;35.25;;;;;12.92;100.00;98511.94;3568635;40;14333;-56
2021/05/17 08:32:35;;;;;;;;;42.50;37.25;;;;;12.84;100.00;98505.56;3567015;40;14101;-52
2021/05/17 08:35:03;;;;;;;;;53.50;39.00;;;;;12.99;100.00;98509.56;3569715;40;14198;-54
2021/05/17 08:37:31;;;;;;;;;52.75;40.75;;;;;12.94;100.00;98511.81;3576929;40;14793;-52
2021/05/17 08:39:58;;;;;;;;;47.50;38.25;;;;;12.94;100.00;98506.44;3576972;40;14189;-55
2021/05/17 08:42:32;;;;;;;;;49.50;40.75;;;;;12.95;100.00;98503.59;3577315;40;14254;-54
2021/05/17 08:45:01;;;;;;;;;53.00;37.75;;;;;12.99;100.00;98497.94;3577384;40;14312;-52
2021/05/17 08:47:29;;;;;;;;;45.00;37.00;;;;;12.97;100.00;98489.97;3577167;40;14080;-52
2021/05/17 08:49:56;;;;;;;;;46.75;38.00;;;;;13.04;100.00;98501.91;3583953;40;14620;-51
2021/05/17 08:52:25;;;;;;;;;44.25;36.00;;;;;13.10;100.00;98492.41;3576663;40;14102;-54
2021/05/17 08:54:52;;;;;;;;;46.25;38.00;;;;;12.94;100.00;98493.81;3577072;40;14273;-54
2021/05/17 08:57:20;;;;;;;;;36.25;34.25;;;;;13.02;100.00;98494.97;3576380;40;14083;-53
2021/05/17 08:59:47;;;;;;;;;41.25;36.75;;;;;12.97;100.00;98489.97;3575060;40;14116;-55
2021/05/17 09:02:14;;;;;;;;;47.50;38.50;;;;;13.03;100.00;98489.41;3576969;40;14100;-52
2021/05/17 09:05:24;;;;;;;;;41.00;35.25;;;;;12.99;100.00;98481.78;3576825;40;14620;-51
2021/05/17 09:07:58;;;;;;;;;53.00;41.00;;;;;13.09;100.00;98475.41;3576655;40;14104;-53
2021/05/17 09:10:47;;;;;;;;;34.75;30.75;;;;;13.18;100.00;98476.41;3576854;40;14158;-56
2021/05/17 09:13:19;;;;;;;;;38.75;30.50;;;;;13.10;100.00;98473.56;3576702;40;14689;-51
2021/05/17 09:15:50;;;;;;;;;36.25;34.25;;;;;13.08;100.00;98476.38;3576208;40;14176;-55
2021/05/17 09:18:30;;;;;;;;;39.25;36.00;;;;;13.24;100.00;98466.88;3576841;40;14081;-56
2021/05/17 09:21:05;;;;;;;;;42.00;36.00;;;;;13.23;100.00;98466.03;3584207;40;14112;-54
2021/05/17 09:23:35;;;;;;;;;48.00;38.00;;;;;13.27;100.00;98470.22;3576823;40;14100;-55
2021/05/17 09:26:14;;;;;;;;;41.50;36.25;;;;;13.38;100.00;98464.66;3576380;40;14126;-56
2021/05/17 09:28:51;;;;;;;;;38.50;34.75;;;;;13.35;100.00;98459.56;3574370;40;14191;-56
2021/05/17 09:31:24;;;;;;;;;33.75;33.25;;;;;13.33;100.00;98461.53;3569360;40;14144;-53
2021/05/17 09:34:01;;;;;;;;;36.25;29.50;;;;;13.46;100.00;98458.56;3566564;40;14125;-53
2021/05/17 09:36:37;;;;;;;;;35.50;32.00;;;;;13.36;100.00;98458.56;3573775;40;14317;-51
2021/05/17 09:39:11;;;;;;;;;39.75;33.75;;;;;13.68;100.00;98452.00;3565596;40;14097;-55
2021/05/17 09:41:56;;;;;;;;;36.50;32.50;;;;;13.49;100.00;98450.19;3577934;40;14191;-53
2021/05/17 09:44:27;;;;;;;;;33.25;31.25;;;;;13.63;100.00;98443.47;3576532;40;14132;-53
2021/05/17 09:47:20;;;;;;;;;29.25;28.25;;;;;13.61;100.00;98437.38;3576942;40;14308;-57
2021/05/17 09:49:56;;;;;;;;;34.00;29.50;;;;;13.99;100.00;98438.31;3576565;40;14107;-54
2021/05/17 09:52:29;;;;;;;;;30.00;27.00;;;;;14.19;100.00;98429.16;3572965;40;14067;-51
2021/05/17 09:55:10;;;;;;;;;27.00;26.00;;;;;14.31;100.00;98437.03;3574334;40;14114;-51
2021/05/17 09:57:48;;;;;;;;;31.25;29.25;;;;;14.10;100.00;98429.16;3576772;40;14571;-50
2021/05/17 10:00:28;;;;;;;;;27.00;22.50;;;;;14.15;100.00;98416.94;3576659;40;14133;-53
2021/05/17 10:03:00;;;;;;;;;40.25;33.50;;;;;13.89;100.00;98426.69;3576963;40;14082;-49
2021/05/17 10:05:35;;;;;;;;;29.75;27.25;;;;;13.76;100.00;98416.19;3577938;40;14124;-51
2021/05/17 10:08:16;;;;;;;;;34.25;30.25;;;;;14.00;100.00;98413.84;3577908;40;14303;-49
2021/05/17 10:10:44;;;;;;;;;33.50;30.75;;;;;13.97;100.00;98413.31;3585229;40;14274;-51
2021/05/17 10:13:11;;;;;;;;;27.75;25.00;;;;;13.87;100.00;98420.56;3578269;40;14153;-50
2021/05/17 10:15:40;;;;;;;;;27.00;26.50;;;;;14.09;100.00;98409.44;3576290;40;14118;-53
2021/05/17 10:18:15;;;;;;;;;28.75;24.25;;;;;13.90;100.00;98414.88;3568113;40;14630;-50
2021/05/17 10:20:44;;;;;;;;;30.75;27.25;;;;;13.97;100.00;98405.22;3568132;40;14208;-52
2021/05/17 10:23:13;;;;;;;;;29.00;24.75;;;;;13.86;100.00;98400.00;3566744;40;14647;-55
2021/05/17 10:25:42;;;;;;;;;25.50;25.50;;;;;13.84;100.00;98408.22;3567804;40;14297;-55
2021/05/17 10:28:19;;;;;;;;;29.75;27.75;;;;;13.81;100.00;98398.56;3567822;40;14092;-48
2021/05/17 10:30:47;;;;;;;;;27.25;25.50;;;;;13.90;100.00;98387.91;3585109;40;14097;-51
2021/05/17 10:33:27;;;;;;;;;23.75;23.25;;;;;13.95;100.00;98388.31;3578251;40;14075;-50
2021/05/17 10:35:54;;;;;;;;;32.25;30.25;;;;;14.32;100.00;98382.03;3577294;40;14104;-52
2021/05/17 10:38:41;;;;;;;;;37.75;34.50;;;;;15.14;100.00;98376.53;3578139;40;14714;-54
2021/05/17 10:41:15;;;;;;;;;38.25;34.50;;;;;15.61;100.00;98377.19;3577628;40;14120;-49
2021/05/17 10:46:39;;;;;;;;;28.25;28.00;;;;;14.51;100.00;98368.44;3585132;40;14116;-52
2021/05/17 10:49:30;;;;;;;;;26.50;24.50;;;;;14.27;100.00;98377.94;3578068;40;14099;-52
2021/05/17 10:52:06;;;;;;;;;31.75;29.25;;;;;14.05;100.00;98373.78;3573803;40;14153;-49
2021/05/17 10:54:41;;;;;;;;;30.75;28.50;;;;;14.37;100.00;98371.63;3572494;40;14082;-61
2021/05/17 10:57:40;;;;;;;;;45.75;36.50;;;;;14.53;100.00;98361.03;3576077;40;14143;-61
2021/05/17 11:00:24;;;;;;;;;45.25;36.75;;;;;14.48;100.00;98364.19;3582185;40;14120;-59
2021/05/17 11:03:16;;;;;;;;;34.50;29.50;;;;;14.58;100.00;98371.38;3576776;40;14097;-61
2021/05/17 11:05:45;;;;;;;;;44.50;38.25;;;;;14.85;100.00;98367.78;3572328;40;14104;-61
2021/05/17 11:08:17;;;;;;;;;40.50;36.00;;;;;14.56;100.00;98371.56;3567570;40;14086;-61
2021/05/17 11:10:53;;;;;;;;;36.50;34.50;;;;;14.87;100.00;98373.88;3583462;40;14074;-61
2021/05/17 11:13:23;;;;;;;;;40.25;34.00;;;;;14.65;100.00;98372.50;3568150;40;14534;-61
2021/05/17 11:16:07;;;;;;;;;37.75;35.50;;;;;14.91;100.00;98367.19;3575054;40;14076;-54
2021/05/17 11:18:39;;;;;;;;;36.75;34.00;;;;;14.88;100.00;98370.19;3567426;40;14115;-54
2021/05/17 11:21:21;;;;;;;;;39.75;34.00;;;;;15.06;100.00;98362.06;3569229;40;14261;-50
2021/05/17 11:23:52;;;;;;;;;39.00;34.00;;;;;15.05;100.00;98361.22;3573078;40;14150;-49
2021/05/17 11:26:23;;;;;;;;;30.50;29.00;;;;;15.29;100.00;98351.63;3571504;40;14116;-53
2021/05/17 11:28:50;;;;;;;;;30.75;29.50;;;;;15.44;100.00;98352.75;3577833;40;14097;-48
2021/05/17 11:34:06;;;;;;;;;31.00;31.00;;;;;15.22;100.00;98345.13;3570180;40;14077;-50
2021/05/17 11:36:47;;;;;;;;;30.75;25.75;;;;;15.28;100.00;98347.22;3568534;40;14087;-53
2021/05/17 11:39:17;;;;;;;;;29.50;27.50;;;;;14.90;100.00;98355.53;3570613;40;14665;-52
2021/05/17 11:41:58;;;;;;;;;34.00;30.00;;;;;15.02;100.00;98347.16;3571204;40;14072;-61
2021/05/17 11:47:26;;;;;;;;;22.25;21.50;;;;;14.82;100.00;98341.06;3575220;40;14614;-63
2021/05/17 11:49:56;;;;;;;;;25.00;20.75;;;;;15.11;100.00;98343.53;3584633;40;14286;-63
2021/05/17 11:52:32;;;;;;;;;21.75;21.00;;;;;15.04;100.00;98345.16;3576094;40;14059;-61
2021/05/17 11:55:07;;;;;;;;;24.50;24.00;;;;;15.10;100.00;98337.28;3567596;40;14221;-60
2021/05/17 11:57:38;;;;;;;;;25.50;22.25;;;;;14.91;100.00;98337.44;3566993;40;14620;-59
2021/05/17 12:00:08;;;;;;;;;24.75;22.50;;;;;15.05;100.00;98327.94;3582186;40;14067;-57
2021/05/17 12:02:44;;;;;;;;;30.00;26.75;;;;;15.59;100.00;98334.94;3577462;40;14105;-60